La Cygne, Kansas
Current Conditions -  °F | °C
As of 8:53 PM on Thursday 27 Nov 2014 (Local Time) from KIXD Reporting Station
Clear Clear  
Wind Chill: 22°   Ceiling: Unl
Heat Index: 30°   Visibility: 9mi
Dew Point: 22°   Wind: 9mph
Humidity: 72%   Direction: 140°SE
Pressure: 30.31"   Gusts: NA
Location:  38.35°N, 94.76°W
Report Text: KIXD 280253Z 14008KT 9SM CLR M01/M06 A3031 RMK AO2 SLP273 T10111056 56014
Loading
Personal Weather Stations






























Interactive Weather Map New forecast layout! Learn more

10-Day Weather Forecast

Advertisements
Track Severe Weather on mobile